Stolt Shearwater — ZCRD9 — position and weather

sailwx.info

Track history (hours):
 
Tides and Currents Weather Stations Pressure Air Temp Water Temp Dewpoint Dewpoint Depression Visibility Wind Speed Wind Dir Waves Ship Positions

Stolt Shearwater

Last reported at 2016-Oct-01 03:32 UTC. Time now 2016-Oct-01 08:41 UTC.
Position N 50°12' W 000°04'.

Length 96 m; draft 6.3 m.

Type: Ship (hazmat cat A). MMSI: 319402000.

Date/timePositionNaut miles runAvg speedWind from/ knotsBaromVisibWave heightAir tempDewpointWater temp
2016-Oct-01 03:32N 50°12' W 000°04'28 9.5
2016-Oct-01 00:33N 49°47' W 000°26'19 9.3
2016-Sep-30 22:33N 49°31' W 000°12'2010.0
2016-Sep-30 20:33N 49°26' E 000°18'10 3.1
2016-Sep-30 17:26N 49°28' E 000°33'0 0.0
2016-Sep-30 16:32N 49°28' E 000°33'0 0.0
2016-Sep-30 14:23N 49°28' E 000°33'0 0.0
2016-Sep-29 20:20N 49°28' E 000°33'0 0.0
2016-Sep-29 19:33N 49°28' E 000°33'25 8.3
2016-Sep-29 16:33N 49°28' W 000°06'0 0.1
2016-Sep-29 15:31N 49°28' W 000°06'0 0.1
2016-Sep-29 14:31N 49°28' W 000°06'0 0.1
2016-Sep-29 13:31N 49°28' W 000°06'0 0.0
2016-Sep-29 08:31N 49°28' W 000°06'0 0.0
2016-Sep-29 07:31N 49°28' W 000°06'4 0.5
2016-Sep-29 00:33N 49°30' W 000°10'25 8.4
2016-Sep-28 21:33N 49°41' W 000°46'2110.6
2016-Sep-28 19:33N 49°49' W 001°16'3612.0
2016-Sep-28 16:33N 49°54' W 002°11'10 9.9
2016-Sep-28 15:32N 49°53' W 002°27'26 8.7
2016-Sep-28 12:34N 49°49' W 003°07'33 8.2
2016-Sep-28 08:34N 49°47' W 003°57'5611.1
2016-Sep-28 03:33N 49°52' W 005°23'1211.8
2016-Sep-28 02:33N 49°54' W 005°41'1111.2
2016-Sep-28 01:33N 49°55' W 005°58'18 9.1
2016-Sep-27 23:33N 50°13' W 006°01'4210.4
2016-Sep-27 19:33N 50°55' W 006°00'189 8.2
2016-Sep-26 20:33N 53°31' W 003°06'10 9.7
2016-Sep-26 19:33N 53°22' W 002°59'7 1.6
2016-Sep-26 15:31N 53°17' W 002°52'0 0.0
2016-Sep-26 13:31N 53°17' W 002°52'0 0.0
2016-Sep-26 11:31N 53°17' W 002°52'0 0.0
2016-Sep-26 08:31N 53°17' W 002°52'0 0.0
2016-Sep-26 02:31N 53°17' W 002°52'0 0.0
2016-Sep-26 01:31N 53°17' W 002°52'0 0.0
2016-Sep-26 00:31N 53°17' W 002°52'0 0.0
2016-Sep-25 21:28N 53°17' W 002°52'0 0.0
2016-Sep-25 17:28N 53°17' W 002°52'0 0.0
2016-Sep-25 16:31N 53°17' W 002°52'0 0.0
2016-Sep-25 15:28N 53°17' W 002°52'0 0.0
2016-Sep-25 14:31N 53°17' W 002°52'0 0.0
2016-Sep-25 12:31N 53°17' W 002°52'0 0.0
2016-Sep-25 11:31N 53°17' W 002°52'0 0.0
2016-Sep-25 10:31N 53°17' W 002°52'0 0.0
2016-Sep-25 09:28N 53°17' W 002°52'0 0.0
2016-Sep-25 07:31N 53°17' W 002°52'1 0.3
2016-Sep-25 04:30N 53°17' W 002°51'0 0.0
2016-Sep-25 00:33N 53°17' W 002°51'0 0.0
2016-Sep-24 22:33N 53°17' W 002°51'0 0.0
2016-Sep-24 21:21N 53°17' W 002°51'0 0.0
2016-Sep-24 19:33N 53°17' W 002°51'0 0.0
2016-Sep-24 18:30N 53°17' W 002°51'0 0.0
2016-Sep-24 17:30N 53°17' W 002°51'0 0.0
2016-Sep-24 16:33N 53°17' W 002°51'0 0.1
2016-Sep-24 14:33N 53°17' W 002°51'0 0.0
2016-Sep-24 12:33N 53°17' W 002°51'0 0.0
2016-Sep-24 10:33N 53°17' W 002°51'0 0.0
2016-Sep-24 09:33N 53°17' W 002°51'0 0.0
2016-Sep-24 03:30N 53°17' W 002°51'0 0.0
2016-Sep-24 02:33N 53°17' W 002°51'0 0.0
2016-Sep-24 01:33N 53°17' W 002°51'0 0.0
2016-Sep-24 00:27N 53°17' W 002°51'0 0.0
2016-Sep-23 19:33N 53°17' W 002°51'1 0.3
2016-Sep-23 17:29N 53°17' W 002°52'0 0.0
2016-Sep-23 16:32N 53°17' W 002°52'0 0.0
2016-Sep-23 15:29N 53°17' W 002°52'0 0.0
2016-Sep-23 13:32N 53°17' W 002°52'0 0.0
2016-Sep-23 09:32N 53°17' W 002°52'0 0.0
2016-Sep-23 06:29N 53°17' W 002°52'0 0.0
2016-Sep-23 04:20N 53°17' W 002°52'0 0.0
2016-Sep-23 03:29N 53°17' W 002°52'0 0.0
2016-Sep-23 02:32N 53°17' W 002°52'0 0.0
2016-Sep-23 01:26N 53°17' W 002°52'0 0.0
2016-Sep-23 00:32N 53°17' W 002°52'0 0.0
2016-Sep-22 23:32N 53°17' W 002°52'0 0.0
2016-Sep-22 20:32N 53°17' W 002°52'0 0.0
2016-Sep-22 12:32N 53°17' W 002°52'4 0.4
2016-Sep-22 04:33N 53°19' W 002°57'1 1.3
2016-Sep-22 03:33N 53°21' W 002°58'1 0.5
2016-Sep-22 00:32N 53°19' W 002°57'0 0.0
2016-Sep-21 23:32N 53°19' W 002°57'0 0.0
2016-Sep-21 22:29N 53°19' W 002°57'0 0.0
2016-Sep-21 19:29N 53°19' W 002°57'0 0.0
2016-Sep-21 16:11N 53°19' W 002°57'0 0.0
2016-Sep-21 08:29N 53°19' W 002°57'  
Track history (hours):
 
Tides and Currents Weather Stations Pressure Air Temp Water Temp Dewpoint Dewpoint Depression Visibility Wind Speed Wind Dir Waves Ship Positions

Stolt Shearwater

Last reported at 2016-Oct-01 03:32 UTC. Time now 2016-Oct-01 08:41 UTC.
Position N 50°12' W 000°04'.

Length 96 m; draft 6.3 m.

Type: Ship (hazmat cat A). MMSI: 319402000.

Date/timePositionNaut miles runAvg speedWind from/ knotsBaromVisibWave heightAir tempDewpointWater temp
2016-Oct-01 03:32N 50°12' W 000°04'28 9.5
2016-Oct-01 00:33N 49°47' W 000°26'19 9.3
2016-Sep-30 22:33N 49°31' W 000°12'2010.0
2016-Sep-30 20:33N 49°26' E 000°18'10 3.1
2016-Sep-30 17:26N 49°28' E 000°33'0 0.0
2016-Sep-30 16:32N 49°28' E 000°33'0 0.0
2016-Sep-30 14:23N 49°28' E 000°33'0 0.0
2016-Sep-29 20:20N 49°28' E 000°33'0 0.0
2016-Sep-29 19:33N 49°28' E 000°33'25 8.3
2016-Sep-29 16:33N 49°28' W 000°06'0 0.1
2016-Sep-29 15:31N 49°28' W 000°06'0 0.1
2016-Sep-29 14:31N 49°28' W 000°06'0 0.1
2016-Sep-29 13:31N 49°28' W 000°06'0 0.0
2016-Sep-29 08:31N 49°28' W 000°06'0 0.0
2016-Sep-29 07:31N 49°28' W 000°06'4 0.5
2016-Sep-29 00:33N 49°30' W 000°10'25 8.4
2016-Sep-28 21:33N 49°41' W 000°46'2110.6
2016-Sep-28 19:33N 49°49' W 001°16'3612.0
2016-Sep-28 16:33N 49°54' W 002°11'10 9.9
2016-Sep-28 15:32N 49°53' W 002°27'26 8.7
2016-Sep-28 12:34N 49°49' W 003°07'33 8.2
2016-Sep-28 08:34N 49°47' W 003°57'5611.1
2016-Sep-28 03:33N 49°52' W 005°23'1211.8
2016-Sep-28 02:33N 49°54' W 005°41'1111.2
2016-Sep-28 01:33N 49°55' W 005°58'18 9.1
2016-Sep-27 23:33N 50°13' W 006°01'4210.4
2016-Sep-27 19:33N 50°55' W 006°00'189 8.2
2016-Sep-26 20:33N 53°31' W 003°06'10 9.7
2016-Sep-26 19:33N 53°22' W 002°59'7 1.6
2016-Sep-26 15:31N 53°17' W 002°52'0 0.0
2016-Sep-26 13:31N 53°17' W 002°52'0 0.0
2016-Sep-26 11:31N 53°17' W 002°52'0 0.0
2016-Sep-26 08:31N 53°17' W 002°52'0 0.0
2016-Sep-26 02:31N 53°17' W 002°52'0 0.0
2016-Sep-26 01:31N 53°17' W 002°52'0 0.0
2016-Sep-26 00:31N 53°17' W 002°52'0 0.0
2016-Sep-25 21:28N 53°17' W 002°52'0 0.0
2016-Sep-25 17:28N 53°17' W 002°52'0 0.0
2016-Sep-25 16:31N 53°17' W 002°52'0 0.0
2016-Sep-25 15:28N 53°17' W 002°52'0 0.0
2016-Sep-25 14:31N 53°17' W 002°52'0 0.0
2016-Sep-25 12:31N 53°17' W 002°52'0 0.0
2016-Sep-25 11:31N 53°17' W 002°52'0 0.0
2016-Sep-25 10:31N 53°17' W 002°52'0 0.0
2016-Sep-25 09:28N 53°17' W 002°52'0 0.0
2016-Sep-25 07:31N 53°17' W 002°52'1 0.3
2016-Sep-25 04:30N 53°17' W 002°51'0 0.0
2016-Sep-25 00:33N 53°17' W 002°51'0 0.0
2016-Sep-24 22:33N 53°17' W 002°51'0 0.0
2016-Sep-24 21:21N 53°17' W 002°51'0 0.0
2016-Sep-24 19:33N 53°17' W 002°51'0 0.0
2016-Sep-24 18:30N 53°17' W 002°51'0 0.0
2016-Sep-24 17:30N 53°17' W 002°51'0 0.0
2016-Sep-24 16:33N 53°17' W 002°51'0 0.1
2016-Sep-24 14:33N 53°17' W 002°51'0 0.0
2016-Sep-24 12:33N 53°17' W 002°51'0 0.0
2016-Sep-24 10:33N 53°17' W 002°51'0 0.0
2016-Sep-24 09:33N 53°17' W 002°51'0 0.0
2016-Sep-24 03:30N 53°17' W 002°51'0 0.0
2016-Sep-24 02:33N 53°17' W 002°51'0 0.0
2016-Sep-24 01:33N 53°17' W 002°51'0 0.0
2016-Sep-24 00:27N 53°17' W 002°51'0 0.0
2016-Sep-23 19:33N 53°17' W 002°51'1 0.3
2016-Sep-23 17:29N 53°17' W 002°52'0 0.0
2016-Sep-23 16:32N 53°17' W 002°52'0 0.0
2016-Sep-23 15:29N 53°17' W 002°52'0 0.0
2016-Sep-23 13:32N 53°17' W 002°52'0 0.0
2016-Sep-23 09:32N 53°17' W 002°52'0 0.0
2016-Sep-23 06:29N 53°17' W 002°52'0 0.0
2016-Sep-23 04:20N 53°17' W 002°52'0 0.0
2016-Sep-23 03:29N 53°17' W 002°52'0 0.0
2016-Sep-23 02:32N 53°17' W 002°52'0 0.0
2016-Sep-23 01:26N 53°17' W 002°52'0 0.0
2016-Sep-23 00:32N 53°17' W 002°52'0 0.0
2016-Sep-22 23:32N 53°17' W 002°52'0 0.0
2016-Sep-22 20:32N 53°17' W 002°52'0 0.0
2016-Sep-22 12:32N 53°17' W 002°52'4 0.4
2016-Sep-22 04:33N 53°19' W 002°57'1 1.3
2016-Sep-22 03:33N 53°21' W 002°58'1 0.5
2016-Sep-22 00:32N 53°19' W 002°57'0 0.0
2016-Sep-21 23:32N 53°19' W 002°57'0 0.0
2016-Sep-21 22:29N 53°19' W 002°57'0 0.0
2016-Sep-21 19:29N 53°19' W 002°57'0 0.0
2016-Sep-21 16:11N 53°19' W 002°57'0 0.0
2016-Sep-21 08:29N 53°19' W 002°57'  

Dump ship's entire track history